createdAt,value
2024-01-11T00:01:51.508Z,101023.37
2024-01-11T00:04:24.071Z,101007.66
2024-01-11T00:06:56.969Z,101003.98
2024-01-11T00:09:29.543Z,101001.17
2024-01-11T00:12:02.070Z,100999.17
2024-01-11T00:14:34.675Z,100977.11
2024-01-11T00:17:07.855Z,100973.30
2024-01-11T00:19:40.470Z,100996.96
2024-01-11T00:22:13.100Z,101006.45
2024-01-11T00:24:45.610Z,100990.75
2024-01-11T00:27:18.352Z,100998.98
2024-01-11T00:29:51.002Z,101009.98
2024-01-11T00:32:23.644Z,101013.14
2024-01-11T00:34:56.366Z,101005.61
2024-01-11T00:37:29.064Z,100999.20
2024-01-11T00:40:01.734Z,100998.33
2024-01-11T00:42:36.022Z,100998.20
2024-01-11T00:45:11.108Z,101000.59
2024-01-11T00:47:43.846Z,101002.34
2024-01-11T00:50:16.658Z,101005.36
2024-01-11T00:52:49.290Z,101014.02
2024-01-11T00:55:21.852Z,101025.43
2024-01-11T00:57:54.386Z,101019.73
2024-01-11T01:00:26.831Z,101016.71
2024-01-11T01:02:59.375Z,101019.72
2024-01-11T01:05:32.164Z,101016.09
2024-01-11T01:08:05.086Z,101004.31
2024-01-11T01:10:37.702Z,100978.65
2024-01-11T01:13:10.290Z,100970.13
2024-01-11T01:15:43.083Z,100977.67
2024-01-11T01:18:15.876Z,100987.27
2024-01-11T01:20:48.485Z,100982.44
2024-01-11T01:23:21.166Z,101002.95
2024-01-11T01:25:54.025Z,101018.45
2024-01-11T01:28:26.584Z,101022.83
2024-01-11T01:30:59.202Z,101021.98
2024-01-11T01:33:32.009Z,101014.92
2024-01-11T01:36:05.035Z,101006.70
2024-01-11T01:38:37.723Z,101005.50
2024-01-11T01:41:10.423Z,101006.66
2024-01-11T01:43:43.036Z,100995.77
2024-01-11T01:46:20.777Z,100981.51
2024-01-11T01:48:54.145Z,100975.02
2024-01-11T01:51:29.134Z,100965.05
2024-01-11T01:54:03.076Z,100958.52
2024-01-11T01:56:35.909Z,100958.34
2024-01-11T01:59:09.083Z,100952.12
2024-01-11T02:01:41.819Z,100955.80
2024-01-11T02:04:15.752Z,100959.33
2024-01-11T02:06:49.513Z,100961.61
2024-01-11T02:09:22.429Z,100956.21
2024-01-11T02:11:55.761Z,100946.75
2024-01-11T02:14:28.898Z,100940.45
2024-01-11T02:17:03.627Z,100941.91
2024-01-11T02:19:36.658Z,100945.61
2024-01-11T02:22:17.687Z,100943.47
2024-01-11T02:24:50.318Z,100951.60
2024-01-11T02:27:22.954Z,100940.98
2024-01-11T02:29:55.539Z,100917.80
2024-01-11T02:32:28.102Z,100915.16
2024-01-11T02:35:00.893Z,100917.33
2024-01-11T02:37:33.573Z,100906.10
2024-01-11T02:40:07.512Z,100896.33
2024-01-11T02:42:40.167Z,100885.33
2024-01-11T02:45:14.696Z,100872.70
2024-01-11T02:47:47.364Z,100877.95
2024-01-11T02:50:20.125Z,100865.23
2024-01-11T02:52:52.612Z,100851.30
2024-01-11T02:55:25.565Z,100844.88
2024-01-11T02:57:58.088Z,100857.75
2024-01-11T03:00:30.550Z,100862.54
2024-01-11T03:03:03.254Z,100864.91
2024-01-11T03:05:35.984Z,100854.37
2024-01-11T03:08:09.113Z,100844.08
2024-01-11T03:10:42.614Z,100837.28
2024-01-11T03:13:15.240Z,100826.91
2024-01-11T03:15:47.832Z,100826.00
2024-01-11T03:18:20.546Z,100830.19
2024-01-11T03:20:53.609Z,100840.02
2024-01-11T03:23:26.150Z,100835.02
2024-01-11T03:25:59.135Z,100824.93
2024-01-11T03:28:32.839Z,100814.20
2024-01-11T03:31:05.672Z,100815.90
2024-01-11T03:33:38.604Z,100812.90
2024-01-11T03:36:15.407Z,100820.14
2024-01-11T03:38:50.687Z,100815.98
2024-01-11T03:41:24.815Z,100809.21
2024-01-11T03:43:57.306Z,100807.07
2024-01-11T03:46:29.971Z,100808.91
2024-01-11T03:49:02.527Z,100815.52
2024-01-11T03:51:35.088Z,100808.23
2024-01-11T03:54:08.021Z,100805.50
2024-01-11T03:56:42.708Z,100802.77
2024-01-11T03:59:15.873Z,100795.38
2024-01-11T04:01:48.908Z,100793.60
2024-01-11T04:04:21.466Z,100797.54
2024-01-11T04:06:55.186Z,100794.66
2024-01-11T04:09:27.718Z,100790.01
2024-01-11T04:12:00.323Z,100783.10
2024-01-11T04:14:33.357Z,100789.61
2024-01-11T04:17:06.176Z,100788.67
2024-01-11T04:19:38.736Z,100787.27
2024-01-11T04:22:11.354Z,100782.27
2024-01-11T04:24:45.516Z,100784.94
2024-01-11T04:27:18.098Z,100788.03
2024-01-11T04:29:50.658Z,100792.33
2024-01-11T04:32:23.394Z,100789.45
2024-01-11T04:34:56.546Z,100774.38
2024-01-11T04:37:31.065Z,100766.63
2024-01-11T04:40:04.818Z,100765.73
2024-01-11T04:42:37.629Z,100765.95
2024-01-11T04:45:10.913Z,100766.40
2024-01-11T04:47:43.620Z,100762.26
2024-01-11T04:50:17.306Z,100758.66
2024-01-11T04:52:51.096Z,100750.83
2024-01-11T04:55:23.803Z,100753.46
2024-01-11T04:57:56.264Z,100760.58
2024-01-11T05:00:28.698Z,100753.10
2024-01-11T05:03:01.377Z,100738.45
2024-01-11T05:05:34.041Z,100738.91
2024-01-11T05:08:07.075Z,100742.22
2024-01-11T05:10:41.116Z,100744.63
2024-01-11T05:13:13.809Z,100742.16
2024-01-11T05:15:46.410Z,100743.94
2024-01-11T05:18:19.151Z,100746.97
2024-01-11T05:20:51.729Z,100737.35
2024-01-11T05:23:24.371Z,100734.76
2024-01-11T05:25:56.909Z,100727.58
2024-01-11T05:28:29.473Z,100720.11
2024-01-11T05:31:02.790Z,100722.85
2024-01-11T05:33:35.826Z,100725.89
2024-01-11T05:36:10.788Z,100727.08
2024-01-11T05:38:44.387Z,100719.67
2024-01-11T05:41:17.321Z,100708.95
2024-01-11T05:43:50.201Z,100707.21
2024-01-11T05:46:22.706Z,100711.79
2024-01-11T05:48:55.357Z,100705.27
2024-01-11T05:51:28.426Z,100702.33
2024-01-11T05:54:00.975Z,100699.44
2024-01-11T05:56:33.507Z,100696.30
2024-01-11T05:59:06.078Z,100695.73
2024-01-11T06:01:44.753Z,100685.69
2024-01-11T06:04:17.601Z,100676.73
2024-01-11T06:06:50.125Z,100672.92
2024-01-11T06:09:22.689Z,100668.44
2024-01-11T06:11:55.170Z,100665.61
2024-01-11T06:14:28.840Z,100664.58
2024-01-11T06:17:01.395Z,100663.41
2024-01-11T06:19:34.074Z,100669.83
2024-01-11T06:22:06.845Z,100669.35
2024-01-11T06:24:39.569Z,100670.68
2024-01-11T06:27:12.195Z,100664.92
2024-01-11T06:29:44.894Z,100665.52
2024-01-11T06:32:17.504Z,100677.38
2024-01-11T06:34:50.186Z,100684.23
2024-01-11T06:37:23.665Z,100675.91
2024-01-11T06:39:56.241Z,100681.96
2024-01-11T06:42:28.706Z,100678.11
2024-01-11T06:45:02.458Z,100672.92
2024-01-11T06:47:35.205Z,100669.00
2024-01-11T06:50:10.837Z,100666.58
2024-01-11T06:52:43.602Z,100666.80
2024-01-11T06:55:16.248Z,100672.50
2024-01-11T06:57:51.171Z,100675.70
2024-01-11T07:00:24.067Z,100677.03
2024-01-11T07:02:56.692Z,100672.58
2024-01-11T07:05:30.633Z,100682.29
2024-01-11T07:08:03.471Z,100679.67
2024-01-11T07:10:36.239Z,100675.63
2024-01-11T07:13:11.343Z,100673.20
2024-01-11T07:15:44.173Z,100684.29
2024-01-11T07:18:17.449Z,100682.29
2024-01-11T07:20:50.349Z,100681.40
2024-01-11T07:23:23.090Z,100683.82
2024-01-11T07:25:55.746Z,100682.73
2024-01-11T07:28:28.235Z,100686.10
2024-01-11T07:31:00.785Z,100693.20
2024-01-11T07:33:33.538Z,100699.65
2024-01-11T07:36:07.987Z,100697.43
2024-01-11T07:38:40.642Z,100703.19
2024-01-11T07:41:13.829Z,100698.85
2024-01-11T07:43:53.582Z,100695.77
2024-01-11T07:46:35.623Z,100697.52
2024-01-11T07:49:12.983Z,100700.27
2024-01-11T07:51:45.556Z,100705.85
2024-01-11T07:54:18.684Z,100708.67
2024-01-11T07:56:51.208Z,100709.00
2024-01-11T07:59:23.783Z,100706.01
2024-01-11T08:01:56.594Z,100698.98
2024-01-11T08:04:29.135Z,100706.02
2024-01-11T08:07:03.211Z,100708.89
2024-01-11T08:09:35.936Z,100709.70
2024-01-11T08:12:11.101Z,100710.13
2024-01-11T08:14:44.220Z,100698.92
2024-01-11T08:17:17.425Z,100690.06
2024-01-11T08:19:49.897Z,100691.07
2024-01-11T08:22:27.484Z,100681.58
2024-01-11T08:25:00.545Z,100680.65
2024-01-11T08:27:33.222Z,100681.71
2024-01-11T08:30:07.179Z,100675.42
2024-01-11T08:32:40.999Z,100656.10
2024-01-11T08:35:14.262Z,100654.41
2024-01-11T08:37:47.013Z,100661.14
2024-01-11T08:40:19.604Z,100669.64
2024-01-11T08:42:52.152Z,100675.96
2024-01-11T08:45:24.665Z,100670.77
2024-01-11T08:47:58.847Z,100668.55
2024-01-11T08:50:33.994Z,100675.20
2024-01-11T08:53:06.872Z,100676.67
2024-01-11T08:55:39.410Z,100678.54
2024-01-11T08:58:12.493Z,100671.87
2024-01-11T09:00:45.454Z,100672.62
2024-01-11T09:03:18.834Z,100670.79
2024-01-11T09:05:51.752Z,100670.10
2024-01-11T09:08:24.433Z,100671.80
2024-01-11T09:10:57.104Z,100671.30
2024-01-11T09:13:30.516Z,100674.01
2024-01-11T09:16:03.162Z,100673.95
2024-01-11T09:18:36.399Z,100660.77
2024-01-11T09:21:09.218Z,100657.54
2024-01-11T09:23:42.119Z,100656.27
2024-01-11T09:26:14.912Z,100666.54
2024-01-11T09:28:48.005Z,100680.86
2024-01-11T09:31:20.494Z,100689.91
2024-01-11T09:33:54.294Z,100685.11
2024-01-11T09:36:27.121Z,100690.28
2024-01-11T09:38:59.986Z,100685.83
2024-01-11T09:41:33.852Z,100677.02
2024-01-11T09:44:08.572Z,100676.86
2024-01-11T09:46:44.188Z,100675.50
2024-01-11T09:49:21.696Z,100673.83
2024-01-11T09:51:58.013Z,100667.83
2024-01-11T09:54:31.080Z,100665.77
2024-01-11T09:57:04.913Z,100663.11
2024-01-11T09:59:38.520Z,100655.11
2024-01-11T10:02:13.648Z,100656.05
2024-01-11T10:04:46.904Z,100658.90
2024-01-11T10:07:22.164Z,100661.90
2024-01-11T10:09:55.436Z,100655.18
2024-01-11T10:12:28.492Z,100653.16
2024-01-11T10:15:11.221Z,100648.58
2024-01-11T10:17:47.144Z,100644.95
2024-01-11T10:20:25.325Z,100643.66
2024-01-11T10:22:58.980Z,100643.89
2024-01-11T10:25:32.124Z,100644.08
2024-01-11T10:28:04.940Z,100634.14
2024-01-11T10:30:37.622Z,100629.42
2024-01-11T10:33:11.175Z,100636.20
2024-01-11T10:35:44.552Z,100630.48
2024-01-11T10:38:18.672Z,100629.69
2024-01-11T10:40:51.821Z,100632.45
2024-01-11T10:43:25.692Z,100623.21
2024-01-11T10:46:05.479Z,100617.54
2024-01-11T10:48:41.514Z,100622.29
2024-01-11T10:51:21.582Z,100622.87
2024-01-11T10:53:55.844Z,100623.98
2024-01-11T10:56:33.380Z,100617.01
2024-01-11T10:59:07.348Z,100614.98
2024-01-11T11:01:41.478Z,100619.71
2024-01-11T11:04:15.708Z,100619.59
2024-01-11T11:06:48.959Z,100621.42
2024-01-11T11:09:22.738Z,100621.20
2024-01-11T11:11:58.680Z,100614.62
2024-01-11T11:14:33.324Z,100617.02
2024-01-11T11:17:06.632Z,100615.17
2024-01-11T11:19:39.382Z,100602.10
2024-01-11T11:22:16.275Z,100603.95
2024-01-11T11:24:48.875Z,100596.68
2024-01-11T11:27:21.479Z,100593.49
2024-01-11T11:29:54.686Z,100590.94
2024-01-11T11:32:40.204Z,100595.10
2024-01-11T11:35:11.651Z,100595.29
2024-01-11T11:37:44.295Z,100593.89
2024-01-11T11:40:17.965Z,100590.86
2024-01-11T11:42:50.661Z,100598.65
2024-01-11T11:45:30.072Z,100602.58
2024-01-11T11:48:02.935Z,100609.11
2024-01-11T11:50:36.659Z,100612.09
2024-01-11T11:53:13.588Z,100610.27
2024-01-11T11:55:46.273Z,100608.66
2024-01-11T11:58:19.480Z,100602.06
2024-01-11T12:00:53.145Z,100593.61
2024-01-11T12:03:30.978Z,100591.59
2024-01-11T12:06:04.113Z,100590.88
2024-01-11T12:08:37.245Z,100585.20
2024-01-11T12:11:10.093Z,100582.90
2024-01-11T12:13:45.698Z,100582.35
2024-01-11T12:16:18.396Z,100580.21
2024-01-11T12:18:52.811Z,100572.18
2024-01-11T12:21:25.632Z,100575.32
2024-01-11T12:23:58.725Z,100577.09
2024-01-11T12:26:31.797Z,100576.45
2024-01-11T12:29:04.692Z,100577.30
2024-01-11T12:31:37.537Z,100572.73
2024-01-11T12:34:11.207Z,100564.95
2024-01-11T12:36:44.687Z,100573.74
2024-01-11T12:39:18.845Z,100570.63
2024-01-11T12:41:51.708Z,100574.05
2024-01-11T12:44:25.229Z,100572.42
2024-01-11T12:47:02.011Z,100569.59
2024-01-11T12:49:35.347Z,100566.05
2024-01-11T12:52:08.290Z,100564.87
2024-01-11T12:54:40.889Z,100569.05
2024-01-11T12:57:15.368Z,100565.16
2024-01-11T12:59:47.982Z,100555.55
2024-01-11T13:02:21.217Z,100554.45
2024-01-11T13:04:54.388Z,100554.90
2024-01-11T13:07:27.452Z,100556.44
2024-01-11T13:10:00.212Z,100552.34
2024-01-11T13:12:32.883Z,100544.59
2024-01-11T13:15:06.458Z,100552.95
2024-01-11T13:17:39.104Z,100550.83
2024-01-11T13:20:14.386Z,100549.09
2024-01-11T13:22:45.349Z,100543.00
2024-01-11T13:25:17.999Z,100542.87
2024-01-11T13:27:50.547Z,100543.22
2024-01-11T13:30:23.504Z,100537.90
2024-01-11T13:32:56.239Z,100532.42
2024-01-11T13:35:29.171Z,100532.77
2024-01-11T13:38:01.926Z,100529.23
2024-01-11T13:40:35.565Z,100527.71
2024-01-11T13:43:08.150Z,100528.67
2024-01-11T13:45:40.999Z,100530.13
2024-01-11T13:48:13.640Z,100527.13
2024-01-11T13:50:46.630Z,100528.29
2024-01-11T13:53:19.308Z,100531.10
2024-01-11T13:55:52.493Z,100535.00
2024-01-11T13:58:25.324Z,100533.17
2024-01-11T14:00:58.612Z,100531.27
2024-01-11T14:03:31.520Z,100538.17
2024-01-11T14:06:05.566Z,100540.70
2024-01-11T14:08:38.278Z,100542.69
2024-01-11T14:11:10.930Z,100541.48
2024-01-11T14:13:43.555Z,100538.69
2024-01-11T14:16:17.164Z,100542.58
2024-01-11T14:18:50.688Z,100544.66
2024-01-11T14:21:26.145Z,100548.14
2024-01-11T14:23:59.802Z,100554.72
2024-01-11T14:26:33.988Z,100558.70
2024-01-11T14:29:06.555Z,100555.42
2024-01-11T14:31:40.456Z,100558.58
2024-01-11T14:34:13.978Z,100558.34
2024-01-11T14:36:46.742Z,100550.59
2024-01-11T14:39:19.362Z,100551.52
2024-01-11T14:41:52.253Z,100552.25
2024-01-11T14:44:24.971Z,100557.58
2024-01-11T14:46:58.689Z,100563.81
2024-01-11T14:49:31.310Z,100563.63
2024-01-11T14:52:04.309Z,100572.07
2024-01-11T14:54:37.095Z,100567.01
2024-01-11T14:57:10.312Z,100573.92
2024-01-11T14:59:42.900Z,100576.84
2024-01-11T15:02:15.781Z,100582.50
2024-01-11T15:04:48.499Z,100582.35
2024-01-11T15:07:21.180Z,100574.98
2024-01-11T15:09:53.655Z,100588.45
2024-01-11T15:12:26.265Z,100598.67
2024-01-11T15:14:59.859Z,100605.11
2024-01-11T15:17:32.892Z,100597.45
2024-01-11T15:20:06.065Z,100601.11
2024-01-11T15:22:38.829Z,100607.08
2024-01-11T15:25:13.138Z,100609.81
2024-01-11T15:27:45.729Z,100612.61
2024-01-11T15:30:18.741Z,100613.30
2024-01-11T15:32:51.569Z,100611.04
2024-01-11T15:35:24.200Z,100615.17
2024-01-11T15:37:56.832Z,100613.39
2024-01-11T15:40:29.371Z,100613.34
2024-01-11T15:43:02.719Z,100612.98
2024-01-11T15:45:36.934Z,100608.02
2024-01-11T15:48:10.700Z,100608.70
2024-01-11T15:50:43.533Z,100614.02
2024-01-11T15:53:16.183Z,100621.20
2024-01-11T15:55:49.694Z,100621.35
2024-01-11T15:58:22.270Z,100635.33
2024-01-11T16:00:55.081Z,100637.95
2024-01-11T16:03:27.773Z,100650.16
2024-01-11T16:06:00.867Z,100656.44
2024-01-11T16:08:34.143Z,100663.92
2024-01-11T16:11:07.036Z,100665.09
2024-01-11T16:13:41.006Z,100672.16
2024-01-11T16:16:13.602Z,100675.73
2024-01-11T16:18:46.508Z,100678.16
2024-01-11T16:21:19.110Z,100677.67
2024-01-11T16:23:52.389Z,100684.55
2024-01-11T16:26:25.070Z,100692.77
2024-01-11T16:28:58.074Z,100698.52
2024-01-11T16:31:30.948Z,100697.58
2024-01-11T16:34:04.747Z,100704.45
2024-01-11T16:36:41.272Z,100707.31
2024-01-11T16:39:14.068Z,100712.35
2024-01-11T16:41:48.985Z,100721.39
2024-01-11T16:44:21.967Z,100727.64
2024-01-11T16:46:54.875Z,100726.65
2024-01-11T16:49:27.649Z,100730.88
2024-01-11T16:52:02.099Z,100729.50
2024-01-11T16:54:34.636Z,100730.55
2024-01-11T16:57:09.462Z,100729.86
2024-01-11T16:59:42.410Z,100727.63
2024-01-11T17:02:15.199Z,100728.38
2024-01-11T17:04:47.799Z,100729.77
2024-01-11T17:07:20.324Z,100725.94
2024-01-11T17:09:53.034Z,100717.48
2024-01-11T17:12:25.629Z,100722.61
2024-01-11T17:14:58.455Z,100725.77
2024-01-11T17:17:31.971Z,100733.81
2024-01-11T17:20:04.872Z,100737.13
2024-01-11T17:22:37.742Z,100742.15
2024-01-11T17:25:13.538Z,100745.88
2024-01-11T17:27:46.132Z,100748.52
2024-01-11T17:30:19.781Z,100750.63
2024-01-11T17:32:52.722Z,100751.02
2024-01-11T17:35:25.602Z,100748.70
2024-01-11T17:37:58.126Z,100755.60
2024-01-11T17:40:31.432Z,100757.98
2024-01-11T17:43:05.968Z,100753.52
2024-01-11T17:45:39.607Z,100762.38
2024-01-11T17:48:12.272Z,100768.67
2024-01-11T17:50:45.486Z,100764.17
2024-01-11T17:53:19.346Z,100762.33
2024-01-11T17:55:51.882Z,100768.20
2024-01-11T17:58:24.815Z,100768.60
2024-01-11T18:00:59.416Z,100766.30
2024-01-11T18:03:31.988Z,100758.05
2024-01-11T18:06:04.754Z,100762.16
2024-01-11T18:08:37.395Z,100759.66
2024-01-11T18:11:11.670Z,100766.79
2024-01-11T18:13:44.245Z,100767.33
2024-01-11T18:16:16.972Z,100772.38
2024-01-11T18:18:50.916Z,100775.47
2024-01-11T18:21:23.700Z,100777.48
2024-01-11T18:23:57.025Z,100780.95
2024-01-11T18:26:31.172Z,100782.52
2024-01-11T18:29:04.512Z,100783.03
2024-01-11T18:31:37.428Z,100791.67
2024-01-11T18:34:10.621Z,100790.25
2024-01-11T18:36:49.650Z,100793.04
2024-01-11T18:39:22.246Z,100795.04
2024-01-11T18:41:55.045Z,100800.15
2024-01-11T18:44:27.867Z,100807.19
2024-01-11T18:47:01.167Z,100810.54
2024-01-11T18:49:34.238Z,100814.65
2024-01-11T18:52:07.789Z,100817.45
2024-01-11T18:54:40.303Z,100818.04
2024-01-11T18:57:15.371Z,100815.23
2024-01-11T18:59:48.061Z,100812.66
2024-01-11T19:02:20.823Z,100817.17
2024-01-11T19:04:54.276Z,100819.14
2024-01-11T19:07:29.255Z,100824.14
2024-01-11T19:10:04.790Z,100826.31
2024-01-11T19:12:37.458Z,100829.02
2024-01-11T19:15:12.369Z,100835.20
2024-01-11T19:17:45.032Z,100833.69
2024-01-11T19:20:19.818Z,100834.05
2024-01-11T19:22:52.492Z,100832.45
2024-01-11T19:25:25.419Z,100835.45
2024-01-11T19:28:01.002Z,100842.11
2024-01-11T19:30:33.636Z,100844.75
2024-01-11T19:33:08.014Z,100842.50
2024-01-11T19:35:40.896Z,100845.48
2024-01-11T19:38:14.952Z,100850.27
2024-01-11T19:40:47.566Z,100848.92
2024-01-11T19:43:20.366Z,100849.23
2024-01-11T19:45:52.902Z,100850.96
2024-01-11T19:48:25.961Z,100853.81
2024-01-11T19:50:59.588Z,100858.48
2024-01-11T19:53:32.302Z,100865.89
2024-01-11T19:56:05.906Z,100868.20
2024-01-11T19:58:38.732Z,100869.11
2024-01-11T20:01:11.540Z,100872.38
2024-01-11T20:03:44.426Z,100872.98
2024-01-11T20:06:17.410Z,100873.59
2024-01-11T20:08:51.557Z,100878.29
2024-01-11T20:11:25.092Z,100879.29
2024-01-11T20:13:58.003Z,100883.73
2024-01-11T20:16:30.529Z,100883.60
2024-01-11T20:19:03.135Z,100886.30
2024-01-11T20:21:35.937Z,100891.32
2024-01-11T20:24:36.185Z,100895.46
2024-01-11T20:27:09.477Z,100901.48
2024-01-11T20:29:42.571Z,100909.41
2024-01-11T20:32:15.224Z,100912.19
2024-01-11T20:34:47.860Z,100912.44
2024-01-11T20:37:20.537Z,100918.94
2024-01-11T20:39:53.268Z,100928.22
2024-01-11T20:42:25.882Z,100935.23
2024-01-11T20:44:58.533Z,100936.76
2024-01-11T20:47:31.383Z,100940.98
2024-01-11T20:50:04.123Z,100947.72
2024-01-11T20:52:37.144Z,100954.94
2024-01-11T20:55:09.837Z,100958.44
2024-01-11T20:57:42.368Z,100961.07
2024-01-11T21:00:20.015Z,100959.71
2024-01-11T21:02:54.508Z,100965.02
2024-01-11T21:05:32.511Z,100966.80
2024-01-11T21:08:05.424Z,100967.34
2024-01-11T21:10:38.069Z,100978.96
2024-01-11T21:13:12.750Z,100986.52
2024-01-11T21:15:45.486Z,100990.22
2024-01-11T21:18:21.739Z,100995.30
2024-01-11T21:20:57.644Z,100999.83
2024-01-11T21:23:30.251Z,101000.40
2024-01-11T21:26:02.848Z,101001.89
2024-01-11T21:28:35.393Z,101002.64
2024-01-11T21:31:08.189Z,101005.33
2024-01-11T21:33:45.956Z,101005.55
2024-01-11T21:36:23.741Z,101008.52
2024-01-11T21:38:59.301Z,101011.04
2024-01-11T21:41:30.629Z,101017.52
2024-01-11T21:44:03.458Z,101022.91
2024-01-11T21:46:36.271Z,101019.45
2024-01-11T21:49:09.449Z,101021.70
2024-01-11T21:51:42.258Z,101021.83
2024-01-11T21:54:14.876Z,101026.73
2024-01-11T21:56:47.803Z,101029.73
2024-01-11T21:59:30.713Z,101041.23
2024-01-11T22:02:03.429Z,101040.58
2024-01-11T22:04:36.001Z,101045.59
2024-01-11T22:07:10.328Z,101048.70
2024-01-11T22:09:44.765Z,101053.58
2024-01-11T22:12:19.626Z,101053.49
2024-01-11T22:14:52.622Z,101060.17
2024-01-11T22:17:25.582Z,101060.67
2024-01-11T22:19:58.452Z,101062.85
2024-01-11T22:22:31.337Z,101063.59
2024-01-11T22:25:04.339Z,101064.86
2024-01-11T22:27:37.465Z,101066.70
2024-01-11T22:30:15.046Z,101064.86
2024-01-11T22:32:49.059Z,101060.82
2024-01-11T22:35:31.506Z,101063.16
2024-01-11T22:38:40.258Z,101061.88
2024-01-11T22:41:15.418Z,101060.29
2024-01-11T22:43:48.297Z,101056.67
2024-01-11T22:46:20.965Z,101063.01
2024-01-11T22:48:54.272Z,101070.96
2024-01-11T22:51:27.174Z,101075.17
2024-01-11T22:54:00.166Z,101080.47
2024-01-11T22:56:36.363Z,101083.02
2024-01-11T22:59:10.949Z,101080.98
2024-01-11T23:01:45.802Z,101085.06
2024-01-11T23:04:18.509Z,101090.81
2024-01-11T23:06:51.166Z,101088.36
2024-01-11T23:09:24.382Z,101095.95
2024-01-11T23:11:57.422Z,101099.05
2024-01-11T23:14:30.132Z,101107.16
2024-01-11T23:17:02.917Z,101108.64
2024-01-11T23:19:35.527Z,101114.59
2024-01-11T23:22:08.230Z,101121.49
2024-01-11T23:24:40.837Z,101126.65
2024-01-11T23:27:13.416Z,101125.89
2024-01-11T23:29:46.239Z,101131.39
2024-01-11T23:32:18.976Z,101127.59
2024-01-11T23:34:51.671Z,101122.84
2024-01-11T23:37:24.383Z,101118.61
2024-01-11T23:39:56.901Z,101118.64
2024-01-11T23:42:29.375Z,101112.39
2024-01-11T23:45:03.699Z,101108.24
2024-01-11T23:47:36.600Z,101103.28
2024-01-11T23:50:09.964Z,101099.48
2024-01-11T23:52:42.746Z,101105.34
2024-01-11T23:55:15.350Z,101101.77
2024-01-11T23:57:48.145Z,101099.84
